Time;durP1;ratioP1;P1;durP2;ratioP2;P2;SDS_P1;SDS_P2;PMS_P1;PMS_P2;Temp;Humidity;BMP_temperature;BMP_pressure;BME280_temperature;BME280_humidity;BME280_pressure;Samples;Min_cycle;Max_cycle;Signal;HPM_P1;HPM_P2
2021/05/28 00:01:03;;;;;;;0.7;0.5;;;;;;;;;;;;;
2021/05/28 00:03:28;;;;;;;0.3;0.3;;;;;;;;;;;;;
2021/05/28 00:05:53;;;;;;;3.3;0.6;;;;;;;;;;;;;
2021/05/28 00:08:18;;;;;;;0.5;0.5;;;;;;;;;;;;;
2021/05/28 00:10:44;;;;;;;0.4;0.4;;;;;;;;;;;;;
2021/05/28 00:13:09;;;;;;;0.5;0.5;;;;;;;;;;;;;
2021/05/28 00:15:35;;;;;;;1.1;0.7;;;;;;;;;;;;;
2021/05/28 00:18:00;;;;;;;1.5;0.5;;;;;;;;;;;;;
2021/05/28 00:20:26;;;;;;;0.4;0.4;;;;;;;;;;;;;
2021/05/28 00:22:51;;;;;;;1.1;0.7;;;;;;;;;;;;;
2021/05/28 00:25:16;;;;;;;0.3;0.3;;;;;;;;;;;;;
2021/05/28 00:27:41;;;;;;;0.9;0.5;;;;;;;;;;;;;
2021/05/28 00:30:06;;;;;;;0.4;0.4;;;;;;;;;;;;;
2021/05/28 00:32:32;;;;;;;0.6;0.6;;;;;;;;;;;;;
2021/05/28 00:34:57;;;;;;;0.7;0.6;;;;;;;;;;;;;
2021/05/28 00:37:22;;;;;;;0.9;0.5;;;;;;;;;;;;;
2021/05/28 00:39:47;;;;;;;0.4;0.4;;;;;;;;;;;;;
2021/05/28 00:42:12;;;;;;;0.4;0.4;;;;;;;;;;;;;
2021/05/28 00:44:37;;;;;;;4.3;0.9;;;;;;;;;;;;;
2021/05/28 00:47:03;;;;;;;0.7;0.6;;;;;;;;;;;;;
2021/05/28 00:49:28;;;;;;;0.5;0.5;;;;;;;;;;;;;
2021/05/28 00:51:53;;;;;;;0.5;0.5;;;;;;;;;;;;;
2021/05/28 00:54:19;;;;;;;1;0.6;;;;;;;;;;;;;
2021/05/28 00:56:43;;;;;;;2.5;0.6;;;;;;;;;;;;;
2021/05/28 00:59:08;;;;;;;1.1;0.8;;;;;;;;;;;;;
2021/05/28 01:01:34;;;;;;;0.5;0.5;;;;;;;;;;;;;
2021/05/28 01:04:00;;;;;;;2.4;0.7;;;;;;;;;;;;;
2021/05/28 01:06:25;;;;;;;2.4;0.8;;;;;;;;;;;;;
2021/05/28 01:08:50;;;;;;;0.7;0.6;;;;;;;;;;;;;
2021/05/28 01:11:15;;;;;;;0.7;0.6;;;;;;;;;;;;;
2021/05/28 01:13:40;;;;;;;0.8;0.6;;;;;;;;;;;;;
2021/05/28 01:16:05;;;;;;;0.9;0.7;;;;;;;;;;;;;
2021/05/28 01:18:30;;;;;;;0.8;0.7;;;;;;;;;;;;;
2021/05/28 01:20:55;;;;;;;1.9;0.8;;;;;;;;;;;;;
2021/05/28 01:23:20;;;;;;;0.5;0.4;;;;;;;;;;;;;
2021/05/28 01:25:46;;;;;;;0.8;0.5;;;;;;;;;;;;;
2021/05/28 01:28:11;;;;;;;1.8;1.1;;;;;;;;;;;;;
2021/05/28 01:30:36;;;;;;;1;0.9;;;;;;;;;;;;;
2021/05/28 01:33:01;;;;;;;2;0.6;;;;;;;;;;;;;
2021/05/28 01:35:26;;;;;;;1.4;0.8;;;;;;;;;;;;;
2021/05/28 01:37:52;;;;;;;7.1;1.5;;;;;;;;;;;;;
2021/05/28 01:40:17;;;;;;;3.3;1;;;;;;;;;;;;;
2021/05/28 01:42:42;;;;;;;0.8;0.5;;;;;;;;;;;;;
2021/05/28 01:45:07;;;;;;;0.6;0.6;;;;;;;;;;;;;
2021/05/28 01:47:32;;;;;;;2;0.8;;;;;;;;;;;;;
2021/05/28 01:49:57;;;;;;;1.5;0.8;;;;;;;;;;;;;
2021/05/28 01:52:22;;;;;;;0.5;0.5;;;;;;;;;;;;;
2021/05/28 01:54:47;;;;;;;0.4;0.4;;;;;;;;;;;;;
2021/05/28 01:57:13;;;;;;;0.4;0.4;;;;;;;;;;;;;
2021/05/28 01:59:38;;;;;;;0.7;0.5;;;;;;;;;;;;;
2021/05/28 02:02:03;;;;;;;0.6;0.6;;;;;;;;;;;;;
2021/05/28 02:04:28;;;;;;;0.3;0.3;;;;;;;;;;;;;
2021/05/28 02:06:53;;;;;;;3.8;1.4;;;;;;;;;;;;;
2021/05/28 02:09:18;;;;;;;1;0.6;;;;;;;;;;;;;
2021/05/28 02:11:44;;;;;;;0.3;0.3;;;;;;;;;;;;;
2021/05/28 02:14:09;;;;;;;0.5;0.5;;;;;;;;;;;;;
2021/05/28 02:16:34;;;;;;;0.5;0.4;;;;;;;;;;;;;
2021/05/28 02:18:59;;;;;;;2;0.7;;;;;;;;;;;;;
2021/05/28 02:21:24;;;;;;;1.2;0.8;;;;;;;;;;;;;
2021/05/28 02:23:49;;;;;;;8.1;2.2;;;;;;;;;;;;;
2021/05/28 02:26:14;;;;;;;4.2;2.2;;;;;;;;;;;;;
2021/05/28 02:28:39;;;;;;;2;1.1;;;;;;;;;;;;;
2021/05/28 02:31:04;;;;;;;0.6;0.5;;;;;;;;;;;;;
2021/05/28 02:33:29;;;;;;;0.6;0.4;;;;;;;;;;;;;
2021/05/28 02:35:55;;;;;;;0.6;0.5;;;;;;;;;;;;;
2021/05/28 02:38:22;;;;;;;1.5;1;;;;;;;;;;;;;
2021/05/28 02:40:47;;;;;;;1;0.6;;;;;;;;;;;;;
2021/05/28 02:43:12;;;;;;;1;0.7;;;;;;;;;;;;;
2021/05/28 02:45:37;;;;;;;0.3;0.3;;;;;;;;;;;;;
2021/05/28 02:48:02;;;;;;;0.3;0.3;;;;;;;;;;;;;
2021/05/28 02:50:32;;;;;;;0.8;0.6;;;;;;;;;;;;;
2021/05/28 02:52:53;;;;;;;5.4;0.7;;;;;;;;;;;;;
2021/05/28 02:55:18;;;;;;;0.3;0.3;;;;;;;;;;;;;
2021/05/28 02:57:44;;;;;;;0.5;0.5;;;;;;;;;;;;;
2021/05/28 03:00:10;;;;;;;1.2;0.7;;;;;;;;;;;;;
2021/05/28 03:02:35;;;;;;;4;0.5;;;;;;;;;;;;;
2021/05/28 03:05:00;;;;;;;0.6;0.5;;;;;;;;;;;;;
2021/05/28 03:07:25;;;;;;;0.7;0.6;;;;;;;;;;;;;
2021/05/28 03:09:50;;;;;;;1.7;0.7;;;;;;;;;;;;;
2021/05/28 03:12:16;;;;;;;1.8;0.7;;;;;;;;;;;;;
2021/05/28 03:14:42;;;;;;;1.2;0.8;;;;;;;;;;;;;
2021/05/28 03:17:06;;;;;;;0.4;0.4;;;;;;;;;;;;;
2021/05/28 03:19:34;;;;;;;0.8;0.7;;;;;;;;;;;;;
2021/05/28 03:24:23;;;;;;;0.6;0.6;;;;;;;;;;;;;
2021/05/28 03:26:48;;;;;;;1;0.6;;;;;;;;;;;;;
2021/05/28 03:29:13;;;;;;;0.8;0.8;;;;;;;;;;;;;
2021/05/28 03:31:39;;;;;;;1.6;0.7;;;;;;;;;;;;;
2021/05/28 03:34:05;;;;;;;0.9;0.8;;;;;;;;;;;;;
2021/05/28 03:36:29;;;;;;;0.9;0.6;;;;;;;;;;;;;
2021/05/28 03:38:54;;;;;;;0.5;0.5;;;;;;;;;;;;;
2021/05/28 03:41:19;;;;;;;3;0.5;;;;;;;;;;;;;
2021/05/28 03:43:45;;;;;;;0.3;0.3;;;;;;;;;;;;;
2021/05/28 03:46:10;;;;;;;1.1;0.7;;;;;;;;;;;;;
2021/05/28 03:48:35;;;;;;;1.1;0.8;;;;;;;;;;;;;
2021/05/28 03:51:00;;;;;;;6.8;0.9;;;;;;;;;;;;;
2021/05/28 03:53:26;;;;;;;1.5;0.6;;;;;;;;;;;;;
2021/05/28 03:55:51;;;;;;;1.1;0.8;;;;;;;;;;;;;
2021/05/28 03:58:16;;;;;;;0.8;0.7;;;;;;;;;;;;;
2021/05/28 04:02:30;;;;;;;1.2;0.7;;;;;;;5.58;84.04102;942.8144;;;;
2021/05/28 04:04:55;;;;;;;1.2;0.6;;;;;;;5.6;83.76172;942.745;;;;
2021/05/28 04:07:24;;;;;;;1.5;0.8;;;;;;;5.52;83.93945;942.7344;;;;
2021/05/28 04:09:46;;;;;;;0.9;0.8;;;;;;;5.53;84.08789;942.7534;;;;
2021/05/28 04:12:12;;;;;;;0.8;0.7;;;;;;;5.61;84.0459;942.7352;;;;
2021/05/28 04:14:37;;;;;;;8.8;2;;;;;;;5.6;83.83008;942.7598;;;;
2021/05/28 04:17:03;;;;;;;3.1;1.8;;;;;;;5.6;83.9082;942.7836;;;;
2021/05/28 04:19:28;;;;;;;2.4;0.5;;;;;;;;;;;;;
2021/05/28 04:21:53;;;;;;;2.2;0.9;;;;;;;;;;;;;
2021/05/28 04:24:18;;;;;;;2.9;1;;;;;;;;;;;;;
2021/05/28 04:26:43;;;;;;;1.2;0.7;;;;;;;;;;;;;
2021/05/28 04:29:09;;;;;;;0.9;0.6;;;;;;;;;;;;;
2021/05/28 04:31:34;;;;;;;1.4;0.7;;;;;;;;;;;;;
2021/05/28 04:33:59;;;;;;;0.8;0.6;;;;;;;;;;;;;
2021/05/28 04:36:24;;;;;;;0.5;0.5;;;;;;;;;;;;;
2021/05/28 04:38:49;;;;;;;0.7;0.7;;;;;;;;;;;;;
2021/05/28 04:41:14;;;;;;;0.6;0.5;;;;;;;;;;;;;
2021/05/28 04:43:39;;;;;;;0.9;0.8;;;;;;;;;;;;;
2021/05/28 04:46:05;;;;;;;0.4;0.4;;;;;;;;;;;;;
2021/05/28 04:48:30;;;;;;;0.3;0.3;;;;;;;;;;;;;
2021/05/28 04:50:56;;;;;;;3.4;0.7;;;;;;;;;;;;;
2021/05/28 04:53:21;;;;;;;1.1;0.6;;;;;;;;;;;;;
2021/05/28 04:55:47;;;;;;;1.5;0.9;;;;;;;;;;;;;
2021/05/28 04:58:12;;;;;;;3.7;1.1;;;;;;;;;;;;;
2021/05/28 05:00:38;;;;;;;3.9;0.8;;;;;;;;;;;;;
2021/05/28 05:03:04;;;;;;;0.9;0.8;;;;;;;;;;;;;
2021/05/28 05:05:29;;;;;;;1;0.8;;;;;;;;;;;;;
2021/05/28 05:07:54;;;;;;;1;0.7;;;;;;;;;;;;;
2021/05/28 05:10:20;;;;;;;0.2;0.2;;;;;;;;;;;;;
2021/05/28 05:12:46;;;;;;;2.1;0.6;;;;;;;;;;;;;
2021/05/28 05:15:11;;;;;;;0.4;0.3;;;;;;;;;;;;;
2021/05/28 05:17:36;;;;;;;0.4;0.4;;;;;;;;;;;;;
2021/05/28 05:20:01;;;;;;;5.1;0.4;;;;;;;;;;;;;
2021/05/28 05:22:26;;;;;;;0.8;0.4;;;;;;;;;;;;;
2021/05/28 05:24:51;;;;;;;6.5;0.5;;;;;;;;;;;;;
2021/05/28 05:27:16;;;;;;;0.3;0.2;;;;;;;;;;;;;
2021/05/28 05:29:42;;;;;;;1.1;0.4;;;;;;;;;;;;;
2021/05/28 05:32:07;;;;;;;2.6;0.6;;;;;;;;;;;;;
2021/05/28 05:34:32;;;;;;;0.3;0.2;;;;;;;;;;;;;
2021/05/28 05:36:58;;;;;;;0.3;0.1;;;;;;;;;;;;;
2021/05/28 05:39:23;;;;;;;0.3;0.3;;;;;;;;;;;;;
2021/05/28 05:41:48;;;;;;;0.2;0.2;;;;;;;;;;;;;
2021/05/28 05:44:13;;;;;;;2;0.6;;;;;;;;;;;;;
2021/05/28 05:46:39;;;;;;;0.7;0.5;;;;;;;;;;;;;
2021/05/28 05:49:03;;;;;;;0.2;0.1;;;;;;;;;;;;;
2021/05/28 05:51:29;;;;;;;0.2;0.2;;;;;;;;;;;;;
2021/05/28 05:53:53;;;;;;;0.6;0.3;;;;;;;;;;;;;
2021/05/28 05:56:19;;;;;;;0.3;0.2;;;;;;;;;;;;;
2021/05/28 05:58:44;;;;;;;1.1;0.6;;;;;;;;;;;;;
2021/05/28 06:01:10;;;;;;;0.1;0.1;;;;;;;;;;;;;
2021/05/28 06:03:35;;;;;;;0.1;0.1;;;;;;;;;;;;;
2021/05/28 06:06:01;;;;;;;0.4;0.2;;;;;;;;;;;;;
2021/05/28 06:08:26;;;;;;;0.5;0.3;;;;;;;;;;;;;
2021/05/28 06:10:52;;;;;;;0.7;0.2;;;;;;;;;;;;;
2021/05/28 06:13:17;;;;;;;0.4;0.2;;;;;;;;;;;;;
2021/05/28 06:15:44;;;;;;;0.2;0.2;;;;;;;;;;;;;
2021/05/28 06:18:09;;;;;;;0.8;0.4;;;;;;;;;;;;;
2021/05/28 06:20:35;;;;;;;2.6;0.5;;;;;;;;;;;;;
2021/05/28 06:23:00;;;;;;;2.8;0.4;;;;;;;;;;;;;
2021/05/28 06:25:26;;;;;;;0.3;0.3;;;;;;;;;;;;;
2021/05/28 06:27:51;;;;;;;0.2;0.2;;;;;;;;;;;;;
2021/05/28 06:30:17;;;;;;;0.9;0.2;;;;;;;;;;;;;
2021/05/28 06:32:42;;;;;;;0.2;0.2;;;;;;;;;;;;;
2021/05/28 06:35:07;;;;;;;0.1;0.1;;;;;;;;;;;;;
2021/05/28 06:37:32;;;;;;;0;0;;;;;;;;;;;;;
2021/05/28 06:39:57;;;;;;;0.1;0.1;;;;;;;;;;;;;
2021/05/28 06:42:22;;;;;;;0.1;0.1;;;;;;;;;;;;;
2021/05/28 06:47:13;;;;;;;0.3;0.2;;;;;;;;;;;;;
2021/05/28 06:49:38;;;;;;;0.2;0.2;;;;;;;;;;;;;
2021/05/28 06:52:03;;;;;;;0.2;0.2;;;;;;;;;;;;;
2021/05/28 06:54:31;;;;;;;0.1;0.1;;;;;;;;;;;;;
2021/05/28 06:56:53;;;;;;;0.1;0.1;;;;;;;;;;;;;
2021/05/28 06:59:19;;;;;;;0.3;0.2;;;;;;;;;;;;;
2021/05/28 07:01:44;;;;;;;2.6;0.1;;;;;;;;;;;;;
2021/05/28 07:04:09;;;;;;;1.8;0.2;;;;;;;;;;;;;
2021/05/28 07:06:34;;;;;;;0.1;0.1;;;;;;;;;;;;;
2021/05/28 07:08:59;;;;;;;0.2;0.2;;;;;;;;;;;;;
2021/05/28 07:11:24;;;;;;;0.2;0.2;;;;;;;;;;;;;
2021/05/28 07:13:49;;;;;;;0.1;0.1;;;;;;;;;;;;;
2021/05/28 07:16:15;;;;;;;0.4;0.2;;;;;;;;;;;;;
2021/05/28 07:18:40;;;;;;;0.4;0.2;;;;;;;;;;;;;
2021/05/28 07:21:05;;;;;;;0.1;0.1;;;;;;;;;;;;;
2021/05/28 07:23:31;;;;;;;0.3;0.3;;;;;;;;;;;;;
2021/05/28 07:25:59;;;;;;;0.1;0.1;;;;;;;;;;;;;
2021/05/28 07:28:21;;;;;;;1;0.3;;;;;;;;;;;;;
2021/05/28 07:30:47;;;;;;;0.7;0.4;;;;;;;;;;;;;
2021/05/28 07:33:11;;;;;;;0.6;0.4;;;;;;;;;;;;;
2021/05/28 07:35:36;;;;;;;0.8;0.4;;;;;;;;;;;;;
2021/05/28 07:38:01;;;;;;;0.2;0.2;;;;;;;;;;;;;
2021/05/28 07:40:27;;;;;;;2.4;0.2;;;;;;;;;;;;;
2021/05/28 07:42:52;;;;;;;1.4;0.3;;;;;;;;;;;;;
2021/05/28 07:45:17;;;;;;;0.2;0.2;;;;;;;;;;;;;
2021/05/28 07:47:42;;;;;;;0.3;0.1;;;;;;;;;;;;;
2021/05/28 07:50:07;;;;;;;0.2;0.2;;;;;;;;;;;;;
2021/05/28 07:52:32;;;;;;;0.2;0.2;;;;;;;;;;;;;
2021/05/28 07:54:57;;;;;;;0.2;0.1;;;;;;;;;;;;;
2021/05/28 07:57:22;;;;;;;0.4;0.2;;;;;;;;;;;;;
2021/05/28 07:59:48;;;;;;;0.1;0.1;;;;;;;;;;;;;
2021/05/28 08:02:15;;;;;;;0;0;;;;;;;;;;;;;
2021/05/28 08:04:39;;;;;;;0.1;0.1;;;;;;;;;;;;;
2021/05/28 08:07:04;;;;;;;0.2;0.2;;;;;;;;;;;;;
2021/05/28 08:09:29;;;;;;;0.5;0.3;;;;;;;;;;;;;
2021/05/28 08:11:54;;;;;;;0.2;0.1;;;;;;;;;;;;;
2021/05/28 08:14:19;;;;;;;0.2;0.2;;;;;;;;;;;;;
2021/05/28 08:16:44;;;;;;;0.1;0;;;;;;;;;;;;;
2021/05/28 08:19:09;;;;;;;0.3;0.1;;;;;;;;;;;;;
2021/05/28 08:21:34;;;;;;;0.4;0.2;;;;;;;;;;;;;
2021/05/28 08:23:59;;;;;;;0.3;0.3;;;;;;;;;;;;;
2021/05/28 08:26:24;;;;;;;0.1;0;;;;;;;;;;;;;
2021/05/28 08:28:50;;;;;;;0.1;0.1;;;;;;;;;;;;;
2021/05/28 08:31:15;;;;;;;1.5;0.2;;;;;;;;;;;;;
2021/05/28 08:33:40;;;;;;;0.2;0.1;;;;;;;;;;;;;
2021/05/28 08:36:05;;;;;;;0.2;0.1;;;;;;;;;;;;;
2021/05/28 08:38:30;;;;;;;0;0;;;;;;;;;;;;;
2021/05/28 08:40:55;;;;;;;0;0;;;;;;;;;;;;;
2021/05/28 08:43:21;;;;;;;2.5;0.2;;;;;;;;;;;;;
2021/05/28 08:45:46;;;;;;;0.3;0.1;;;;;;;;;;;;;
2021/05/28 08:48:11;;;;;;;0.8;0.1;;;;;;;;;;;;;
2021/05/28 08:50:36;;;;;;;0.4;0.1;;;;;;;;;;;;;
2021/05/28 08:53:01;;;;;;;0.1;0.1;;;;;;;;;;;;;
2021/05/28 08:55:26;;;;;;;0;0;;;;;;;;;;;;;
2021/05/28 08:57:51;;;;;;;0.1;0.1;;;;;;;;;;;;;
2021/05/28 09:00:17;;;;;;;0.4;0;;;;;;;;;;;;;
2021/05/28 09:02:42;;;;;;;0.1;0.1;;;;;;;;;;;;;
2021/05/28 09:05:07;;;;;;;0.1;0.1;;;;;;;;;;;;;
2021/05/28 09:07:32;;;;;;;0;0;;;;;;;;;;;;;
2021/05/28 09:09:57;;;;;;;0.3;0.1;;;;;;;;;;;;;
2021/05/28 09:12:22;;;;;;;0.1;0;;;;;;;;;;;;;
2021/05/28 09:14:47;;;;;;;0.1;0.1;;;;;;;;;;;;;
2021/05/28 09:17:12;;;;;;;0.1;0.1;;;;;;;;;;;;;
2021/05/28 09:19:37;;;;;;;0.6;0.1;;;;;;;;;;;;;
2021/05/28 09:22:02;;;;;;;0;0;;;;;;;;;;;;;
2021/05/28 09:24:28;;;;;;;0.8;0.3;;;;;;;;;;;;;
2021/05/28 09:26:52;;;;;;;0.1;0.1;;;;;;;;;;;;;
2021/05/28 09:29:18;;;;;;;0.1;0.1;;;;;;;;;;;;;
2021/05/28 09:31:43;;;;;;;0.1;0.1;;;;;;;;;;;;;
2021/05/28 09:34:08;;;;;;;0;0;;;;;;;;;;;;;
2021/05/28 09:36:35;;;;;;;2.2;0.2;;;;;;;;;;;;;
2021/05/28 09:38:58;;;;;;;0.4;0.1;;;;;;;;;;;;;
2021/05/28 09:41:24;;;;;;;0.3;0.2;;;;;;;;;;;;;
2021/05/28 09:43:49;;;;;;;0.6;0.3;;;;;;;;;;;;;
2021/05/28 09:46:14;;;;;;;0.3;0.3;;;;;;;;;;;;;
2021/05/28 09:48:39;;;;;;;0.7;0.3;;;;;;;;;;;;;
2021/05/28 09:51:04;;;;;;;0.2;0.1;;;;;;;;;;;;;
2021/05/28 09:53:30;;;;;;;0.2;0.2;;;;;;;;;;;;;
2021/05/28 09:55:55;;;;;;;0.2;0.1;;;;;;;;;;;;;
2021/05/28 09:58:31;;;;;;;0.1;0.1;;;;;;;;;;;;;
2021/05/28 10:00:56;;;;;;;0.2;0.1;;;;;;;;;;;;;
2021/05/28 10:03:22;;;;;;;0;0;;;;;;;;;;;;;
2021/05/28 10:05:47;;;;;;;0.2;0.2;;;;;;;;;;;;;
2021/05/28 10:08:13;;;;;;;3.9;0.5;;;;;;;;;;;;;
2021/05/28 10:10:38;;;;;;;1;0.6;;;;;;;;;;;;;
2021/05/28 10:13:10;;;;;;;0;0;;;;;;;;;;;;;
2021/05/28 10:15:28;;;;;;;0.3;0.1;;;;;;;;;;;;;
2021/05/28 10:17:53;;;;;;;0.2;0.1;;;;;;;;;;;;;
2021/05/28 10:20:19;;;;;;;0.2;0.2;;;;;;;;;;;;;
2021/05/28 10:22:45;;;;;;;0.6;0.3;;;;;;;;;;;;;
2021/05/28 10:25:10;;;;;;;0.3;0.2;;;;;;;;;;;;;
2021/05/28 10:27:37;;;;;;;0;0;;;;;;;;;;;;;
2021/05/28 10:30:02;;;;;;;0.1;0.1;;;;;;;;;;;;;
2021/05/28 10:32:28;;;;;;;0.3;0.2;;;;;;;;;;;;;
2021/05/28 10:34:53;;;;;;;0.7;0.3;;;;;;;;;;;;;
2021/05/28 10:37:18;;;;;;;0.1;0.1;;;;;;;;;;;;;
2021/05/28 10:39:43;;;;;;;0.1;0.1;;;;;;;;;;;;;
2021/05/28 10:42:09;;;;;;;0.2;0.2;;;;;;;;;;;;;
2021/05/28 10:44:34;;;;;;;0.2;0.2;;;;;;;;;;;;;
2021/05/28 10:47:00;;;;;;;0.2;0.2;;;;;;;;;;;;;
2021/05/28 10:49:26;;;;;;;0.2;0.2;;;;;;;;;;;;;
2021/05/28 10:51:51;;;;;;;0.4;0.2;;;;;;;;;;;;;
2021/05/28 10:54:16;;;;;;;0.1;0.1;;;;;;;;;;;;;
2021/05/28 10:56:41;;;;;;;0;0;;;;;;;;;;;;;
2021/05/28 10:59:07;;;;;;;0.4;0.2;;;;;;;;;;;;;
2021/05/28 11:01:32;;;;;;;0.1;0.1;;;;;;;;;;;;;
2021/05/28 11:03:57;;;;;;;0.1;0.1;;;;;;;;;;;;;
2021/05/28 11:06:23;;;;;;;0.7;0.3;;;;;;;;;;;;;
2021/05/28 11:08:51;;;;;;;0.7;0.2;;;;;;;;;;;;;
2021/05/28 11:11:14;;;;;;;0.2;0.1;;;;;;;;;;;;;
2021/05/28 11:13:39;;;;;;;0.3;0.2;;;;;;;;;;;;;
2021/05/28 11:16:05;;;;;;;0.9;0.2;;;;;;;;;;;;;
2021/05/28 11:18:30;;;;;;;7;0.5;;;;;;;;;;;;;
2021/05/28 11:20:55;;;;;;;0.9;0.2;;;;;;;;;;;;;
2021/05/28 11:23:20;;;;;;;0.3;0.2;;;;;;;;;;;;;
2021/05/28 11:25:45;;;;;;;0.3;0.3;;;;;;;;;;;;;
2021/05/28 11:28:11;;;;;;;0.1;0.1;;;;;;;;;;;;;
2021/05/28 11:30:36;;;;;;;0.4;0.2;;;;;;;;;;;;;
2021/05/28 11:33:01;;;;;;;0.2;0.2;;;;;;;;;;;;;
2021/05/28 11:35:27;;;;;;;0.1;0.1;;;;;;;;;;;;;
2021/05/28 11:37:53;;;;;;;0.2;0.1;;;;;;;;;;;;;
2021/05/28 11:40:17;;;;;;;0.3;0.2;;;;;;;;;;;;;
2021/05/28 11:42:43;;;;;;;0.2;0.1;;;;;;;;;;;;;
2021/05/28 11:45:08;;;;;;;0.1;0.1;;;;;;;;;;;;;
2021/05/28 11:47:33;;;;;;;0.9;0.6;;;;;;;;;;;;;
2021/05/28 11:49:58;;;;;;;0.6;0.3;;;;;;;;;;;;;
2021/05/28 11:52:23;;;;;;;0.2;0.2;;;;;;;;;;;;;
2021/05/28 11:54:48;;;;;;;0.6;0.3;;;;;;;;;;;;;
2021/05/28 11:57:14;;;;;;;0.1;0.1;;;;;;;;;;;;;
2021/05/28 11:59:38;;;;;;;0;0;;;;;;;;;;;;;
2021/05/28 12:02:04;;;;;;;0.2;0.2;;;;;;;;;;;;;
2021/05/28 12:04:30;;;;;;;1.4;0.4;;;;;;;;;;;;;
2021/05/28 12:06:54;;;;;;;0.2;0.2;;;;;;;;;;;;;
2021/05/28 12:09:19;;;;;;;0.3;0.2;;;;;;;;;;;;;
2021/05/28 12:11:45;;;;;;;0.2;0.2;;;;;;;;;;;;;
2021/05/28 12:14:10;;;;;;;0.3;0.2;;;;;;;;;;;;;
2021/05/28 12:16:36;;;;;;;0.1;0.1;;;;;;;;;;;;;
2021/05/28 12:19:01;;;;;;;0.4;0.4;;;;;;;;;;;;;
2021/05/28 12:21:27;;;;;;;0.2;0.1;;;;;;;;;;;;;
2021/05/28 12:23:52;;;;;;;0.2;0.1;;;;;;;;;;;;;
2021/05/28 12:26:19;;;;;;;0.1;0.1;;;;;;;;;;;;;
2021/05/28 12:28:43;;;;;;;0.3;0.2;;;;;;;;;;;;;
2021/05/28 12:31:10;;;;;;;3.7;0.4;;;;;;;;;;;;;
2021/05/28 12:33:35;;;;;;;0.3;0.2;;;;;;;;;;;;;
2021/05/28 12:36:00;;;;;;;0.7;0.6;;;;;;;;;;;;;
2021/05/28 12:38:26;;;;;;;0.3;0.1;;;;;;;;;;;;;
2021/05/28 12:40:51;;;;;;;0.6;0.3;;;;;;;;;;;;;
2021/05/28 12:43:16;;;;;;;0.5;0.1;;;;;;;;;;;;;
2021/05/28 12:45:41;;;;;;;0.3;0.3;;;;;;;;;;;;;
2021/05/28 12:48:06;;;;;;;0.5;0.4;;;;;;;;;;;;;
2021/05/28 12:50:33;;;;;;;2.1;0.5;;;;;;;;;;;;;
2021/05/28 12:52:57;;;;;;;0.3;0.3;;;;;;;;;;;;;
2021/05/28 12:55:22;;;;;;;0.2;0.2;;;;;;;;;;;;;
2021/05/28 12:57:49;;;;;;;0.6;0.3;;;;;;;;;;;;;
2021/05/28 13:00:14;;;;;;;0.6;0.4;;;;;;;;;;;;;
2021/05/28 13:02:40;;;;;;;0.2;0.2;;;;;;;;;;;;;
2021/05/28 13:05:06;;;;;;;2.5;0.8;;;;;;;;;;;;;
2021/05/28 13:07:31;;;;;;;0.1;0.1;;;;;;;;;;;;;
2021/05/28 13:09:56;;;;;;;0.3;0.1;;;;;;;;;;;;;
2021/05/28 13:12:21;;;;;;;0.3;0.2;;;;;;;;;;;;;
2021/05/28 13:14:49;;;;;;;0.1;0;;;;;;;;;;;;;
2021/05/28 13:17:12;;;;;;;0.2;0.2;;;;;;;;;;;;;
2021/05/28 13:19:37;;;;;;;0.4;0.2;;;;;;;;;;;;;
2021/05/28 13:22:02;;;;;;;0.3;0.3;;;;;;;;;;;;;
2021/05/28 13:24:27;;;;;;;0.2;0.2;;;;;;;;;;;;;
2021/05/28 13:26:52;;;;;;;0.5;0.3;;;;;;;;;;;;;
2021/05/28 13:29:18;;;;;;;0.2;0.2;;;;;;;;;;;;;
2021/05/28 13:31:43;;;;;;;0.1;0.1;;;;;;;;;;;;;
2021/05/28 13:34:08;;;;;;;0.1;0.1;;;;;;;;;;;;;
2021/05/28 13:36:33;;;;;;;0.2;0.2;;;;;;;;;;;;;
2021/05/28 13:39:07;;;;;;;0.7;0.5;;;;;;;;;;;;;
2021/05/28 13:41:35;;;;;;;0.9;0.3;;;;;;;;;;;;;
2021/05/28 13:43:57;;;;;;;0.3;0.2;;;;;;;;;;;;;
2021/05/28 13:46:22;;;;;;;0.5;0.4;;;;;;;;;;;;;
2021/05/28 13:48:47;;;;;;;0.5;0.2;;;;;;;;;;;;;
2021/05/28 13:51:12;;;;;;;0.9;0.2;;;;;;;;;;;;;
2021/05/28 13:53:37;;;;;;;1;0.4;;;;;;;;;;;;;
2021/05/28 13:56:02;;;;;;;0.2;0.2;;;;;;;;;;;;;
2021/05/28 13:58:27;;;;;;;0.3;0.2;;;;;;;;;;;;;
2021/05/28 14:00:53;;;;;;;0.1;0.1;;;;;;;;;;;;;
2021/05/28 14:03:19;;;;;;;1.5;0.3;;;;;;;;;;;;;
2021/05/28 14:05:43;;;;;;;0.8;0.3;;;;;;;;;;;;;
2021/05/28 14:08:08;;;;;;;0.1;0.1;;;;;;;;;;;;;
2021/05/28 14:10:33;;;;;;;0.4;0.3;;;;;;;;;;;;;
2021/05/28 14:12:59;;;;;;;0.1;0.1;;;;;;;;;;;;;
2021/05/28 14:15:24;;;;;;;0.2;0.2;;;;;;;;;;;;;
2021/05/28 14:17:50;;;;;;;0.2;0.2;;;;;;;;;;;;;
2021/05/28 14:20:15;;;;;;;0.1;0.1;;;;;;;;;;;;;
2021/05/28 14:22:40;;;;;;;2.6;0.3;;;;;;;;;;;;;
2021/05/28 14:25:06;;;;;;;0.2;0.2;;;;;;;;;;;;;
2021/05/28 14:27:31;;;;;;;0.8;0.3;;;;;;;;;;;;;
2021/05/28 14:30:00;;;;;;;0.9;0.4;;;;;;;;;;;;;
2021/05/28 14:32:27;;;;;;;0.4;0.3;;;;;;;;;;;;;
2021/05/28 14:34:50;;;;;;;0.6;0.4;;;;;;;;;;;;;
2021/05/28 14:37:15;;;;;;;1.7;0.6;;;;;;;;;;;;;
2021/05/28 14:39:41;;;;;;;0.4;0.3;;;;;;;;;;;;;
2021/05/28 14:42:06;;;;;;;0.3;0.3;;;;;;;;;;;;;
2021/05/28 14:44:31;;;;;;;0.1;0.1;;;;;;;;;;;;;
2021/05/28 14:46:56;;;;;;;0.3;0.2;;;;;;;;;;;;;
2021/05/28 14:49:21;;;;;;;7.8;0.5;;;;;;;;;;;;;
2021/05/28 14:51:47;;;;;;;0.2;0.2;;;;;;;;;;;;;
2021/05/28 14:54:12;;;;;;;0.2;0.2;;;;;;;;;;;;;
2021/05/28 14:56:38;;;;;;;0.2;0.2;;;;;;;;;;;;;
2021/05/28 14:59:04;;;;;;;1.3;0.6;;;;;;;;;;;;;
2021/05/28 15:01:29;;;;;;;0.3;0.3;;;;;;;;;;;;;
2021/05/28 15:03:54;;;;;;;0.7;0.4;;;;;;;;;;;;;
2021/05/28 15:06:20;;;;;;;0.4;0.4;;;;;;;;;;;;;
2021/05/28 15:08:45;;;;;;;0.6;0.3;;;;;;;;;;;;;
2021/05/28 15:11:10;;;;;;;1.5;0.7;;;;;;;;;;;;;
2021/05/28 15:13:35;;;;;;;0.4;0.3;;;;;;;;;;;;;
2021/05/28 15:16:01;;;;;;;0.7;0.4;;;;;;;;;;;;;
2021/05/28 15:18:26;;;;;;;0.3;0.2;;;;;;;;;;;;;
2021/05/28 15:20:51;;;;;;;0.2;0.2;;;;;;;;;;;;;
2021/05/28 15:23:16;;;;;;;0.3;0.3;;;;;;;;;;;;;
2021/05/28 15:25:41;;;;;;;1.9;0.2;;;;;;;;;;;;;
2021/05/28 15:28:06;;;;;;;0.3;0.3;;;;;;;;;;;;;
2021/05/28 15:30:32;;;;;;;0.4;0.4;;;;;;;;;;;;;
2021/05/28 15:33:00;;;;;;;0.3;0.2;;;;;;;;;;;;;
2021/05/28 15:35:23;;;;;;;2.1;0.2;;;;;;;;;;;;;
2021/05/28 15:37:52;;;;;;;0.2;0.2;;;;;;;;;;;;;
2021/05/28 15:40:14;;;;;;;1.3;0.6;;;;;;;;;;;;;
2021/05/28 15:42:40;;;;;;;0.3;0.2;;;;;;;;;;;;;
2021/05/28 15:45:05;;;;;;;0.7;0.5;;;;;;;;;;;;;
2021/05/28 15:47:31;;;;;;;0.4;0.2;;;;;;;;;;;;;
2021/05/28 15:49:56;;;;;;;0.2;0.2;;;;;;;;;;;;;
2021/05/28 15:52:22;;;;;;;0.5;0.5;;;;;;;;;;;;;
2021/05/28 15:54:47;;;;;;;0.7;0.5;;;;;;;;;;;;;
2021/05/28 15:57:12;;;;;;;2.2;0.7;;;;;;;;;;;;;
2021/05/28 15:59:37;;;;;;;0.2;0.2;;;;;;;;;;;;;
2021/05/28 16:02:02;;;;;;;0.3;0.3;;;;;;;;;;;;;
2021/05/28 16:04:28;;;;;;;0.2;0.2;;;;;;;;;;;;;
2021/05/28 16:06:53;;;;;;;0.4;0.3;;;;;;;;;;;;;
2021/05/28 16:09:18;;;;;;;0.3;0.3;;;;;;;;;;;;;
2021/05/28 16:11:43;;;;;;;2.2;0.7;;;;;;;;;;;;;
2021/05/28 16:14:09;;;;;;;3.4;0.7;;;;;;;;;;;;;
2021/05/28 16:16:34;;;;;;;1.8;0.6;;;;;;;;;;;;;
2021/05/28 16:19:00;;;;;;;2.7;0.5;;;;;;;;;;;;;
2021/05/28 16:21:25;;;;;;;0.4;0.4;;;;;;;;;;;;;
2021/05/28 16:23:50;;;;;;;0.4;0.4;;;;;;;;;;;;;
2021/05/28 16:26:15;;;;;;;0.4;0.2;;;;;;;;;;;;;
2021/05/28 16:28:40;;;;;;;0.3;0.3;;;;;;;;;;;;;
2021/05/28 16:31:08;;;;;;;0.3;0.3;;;;;;;;;;;;;
2021/05/28 16:33:33;;;;;;;1;0.5;;;;;;;;;;;;;
2021/05/28 16:35:58;;;;;;;0.6;0.5;;;;;;;;;;;;;
2021/05/28 16:38:23;;;;;;;0.6;0.4;;;;;;;;;;;;;
2021/05/28 16:40:51;;;;;;;0.5;0.5;;;;;;;;;;;;;
2021/05/28 16:43:15;;;;;;;0.3;0.3;;;;;;;;;;;;;
2021/05/28 16:45:40;;;;;;;1.1;0.5;;;;;;;;;;;;;
2021/05/28 16:48:05;;;;;;;0.4;0.4;;;;;;;;;;;;;
2021/05/28 16:50:53;;;;;;;0.7;0.5;;;;;;;;;;;;;
2021/05/28 16:52:56;;;;;;;1.1;0.4;;;;;;;;;;;;;
2021/05/28 16:55:23;;;;;;;1.9;0.7;;;;;;;;;;;;;
2021/05/28 16:57:47;;;;;;;0.3;0.3;;;;;;;;;;;;;
2021/05/28 17:00:12;;;;;;;1;0.5;;;;;;;;;;;;;
2021/05/28 17:02:37;;;;;;;1.1;0.5;;;;;;;;;;;;;
2021/05/28 17:05:03;;;;;;;0.5;0.5;;;;;;;;;;;;;
2021/05/28 17:07:28;;;;;;;0.5;0.5;;;;;;;;;;;;;
2021/05/28 17:09:53;;;;;;;0.3;0.3;;;;;;;;;;;;;
2021/05/28 17:12:18;;;;;;;1.2;0.7;;;;;;;;;;;;;
2021/05/28 17:14:43;;;;;;;2.2;0.7;;;;;;;;;;;;;
2021/05/28 17:17:09;;;;;;;0.5;0.5;;;;;;;;;;;;;
2021/05/28 17:19:34;;;;;;;0.8;0.6;;;;;;;;;;;;;
2021/05/28 17:22:00;;;;;;;2.4;1.2;;;;;;;;;;;;;
2021/05/28 17:24:25;;;;;;;0.6;0.6;;;;;;;;;;;;;
2021/05/28 17:26:51;;;;;;;2.8;0.7;;;;;;;;;;;;;
2021/05/28 17:29:16;;;;;;;2.2;0.7;;;;;;;;;;;;;
2021/05/28 17:31:41;;;;;;;1.1;0.7;;;;;;;;;;;;;
2021/05/28 17:34:07;;;;;;;0.8;0.5;;;;;;;;;;;;;
2021/05/28 17:36:35;;;;;;;0.6;0.6;;;;;;;;;;;;;
2021/05/28 17:39:00;;;;;;;0.4;0.4;;;;;;;;;;;;;
2021/05/28 17:41:26;;;;;;;1.2;0.7;;;;;;;;;;;;;
2021/05/28 17:43:51;;;;;;;0.5;0.4;;;;;;;;;;;;;
2021/05/28 17:46:17;;;;;;;0.7;0.5;;;;;;;;;;;;;
2021/05/28 17:48:42;;;;;;;0.7;0.6;;;;;;;;;;;;;
2021/05/28 17:51:08;;;;;;;0.5;0.5;;;;;;;;;;;;;
2021/05/28 17:53:32;;;;;;;0.7;0.7;;;;;;;;;;;;;
2021/05/28 17:55:59;;;;;;;0.7;0.6;;;;;;;;;;;;;
2021/05/28 17:58:23;;;;;;;0.6;0.3;;;;;;;;;;;;;
2021/05/28 18:00:48;;;;;;;1.3;0.9;;;;;;;;;;;;;
2021/05/28 18:03:15;;;;;;;0.8;0.8;;;;;;;;;;;;;
2021/05/28 18:05:39;;;;;;;1.7;0.6;;;;;;;;;;;;;
2021/05/28 18:08:04;;;;;;;1;0.6;;;;;;;;;;;;;
2021/05/28 18:10:29;;;;;;;1.1;0.8;;;;;;;;;;;;;
2021/05/28 18:12:54;;;;;;;1.2;0.8;;;;;;;;;;;;;
2021/05/28 18:15:19;;;;;;;0.7;0.7;;;;;;;;;;;;;
2021/05/28 18:17:44;;;;;;;0.9;0.7;;;;;;;;;;;;;
2021/05/28 18:20:10;;;;;;;1.8;1;;;;;;;;;;;;;
2021/05/28 18:22:35;;;;;;;2.7;1;;;;;;;;;;;;;
2021/05/28 18:25:02;;;;;;;2.7;0.8;;;;;;;;;;;;;
2021/05/28 18:27:27;;;;;;;0.9;0.7;;;;;;;;;;;;;
2021/05/28 18:29:52;;;;;;;1.1;0.9;;;;;;;;;;;;;
2021/05/28 18:32:17;;;;;;;1.2;1.1;;;;;;;;;;;;;
2021/05/28 18:34:42;;;;;;;2.5;0.6;;;;;;;;;;;;;
2021/05/28 18:37:08;;;;;;;1;0.7;;;;;;;;;;;;;
2021/05/28 18:39:33;;;;;;;0.7;0.7;;;;;;;;;;;;;
2021/05/28 18:41:59;;;;;;;0.6;0.6;;;;;;;;;;;;;
2021/05/28 18:44:35;;;;;;;0.9;0.7;;;;;;;;;;;;;
2021/05/28 18:46:55;;;;;;;0.8;0.8;;;;;;;;;;;;;
2021/05/28 18:49:21;;;;;;;0.6;0.6;;;;;;;;;;;;;
2021/05/28 18:51:45;;;;;;;1.2;0.5;;;;;;;;;;;;;
2021/05/28 18:54:10;;;;;;;1.6;0.8;;;;;;;;;;;;;
2021/05/28 18:56:35;;;;;;;1.4;0.7;;;;;;;;;;;;;
2021/05/28 18:59:00;;;;;;;0.6;0.6;;;;;;;;;;;;;
2021/05/28 19:01:25;;;;;;;0.8;0.6;;;;;;;;;;;;;
2021/05/28 19:03:51;;;;;;;0.9;0.6;;;;;;;;;;;;;
2021/05/28 19:06:17;;;;;;;2;1.1;;;;;;;;;;;;;
2021/05/28 19:08:43;;;;;;;0.7;0.7;;;;;;;;;;;;;
2021/05/28 19:11:08;;;;;;;0.8;0.8;;;;;;;;;;;;;
2021/05/28 19:13:34;;;;;;;2.1;1.2;;;;;;;;;;;;;
2021/05/28 19:18:26;;;;;;;2;0.7;;;;;;;;;;;;;
2021/05/28 19:20:49;;;;;;;1.6;1;;;;;;;;;;;;;
2021/05/28 19:23:14;;;;;;;1.3;1.1;;;;;;;;;;;;;
2021/05/28 19:25:42;;;;;;;1;0.8;;;;;;;;;;;;;
2021/05/28 19:28:05;;;;;;;1.6;1;;;;;;;;;;;;;
2021/05/28 19:30:30;;;;;;;1.1;1;;;;;;;;;;;;;
2021/05/28 19:32:55;;;;;;;1.8;1.4;;;;;;;;;;;;;
2021/05/28 19:35:20;;;;;;;2.2;0.8;;;;;;;;;;;;;
2021/05/28 19:37:45;;;;;;;0.6;0.6;;;;;;;;;;;;;
2021/05/28 19:40:10;;;;;;;0.8;0.7;;;;;;;;;;;;;
2021/05/28 19:42:36;;;;;;;1;0.7;;;;;;;;;;;;;
2021/05/28 19:45:01;;;;;;;2.6;0.9;;;;;;;;;;;;;
2021/05/28 19:47:27;;;;;;;1.7;1;;;;;;;;;;;;;
2021/05/28 19:49:51;;;;;;;2;1.2;;;;;;;;;;;;;
2021/05/28 19:52:19;;;;;;;1.5;1.1;;;;;;;;;;;;;
2021/05/28 19:57:08;;;;;;;1.4;1;;;;;;;;;;;;;
2021/05/28 19:59:33;;;;;;;1.2;1.1;;;;;;;;;;;;;
2021/05/28 20:01:58;;;;;;;1.6;0.8;;;;;;;;;;;;;
2021/05/28 20:04:25;;;;;;;1;0.8;;;;;;;;;;;;;
2021/05/28 20:06:50;;;;;;;0.8;0.8;;;;;;;;;;;;;
2021/05/28 20:09:15;;;;;;;1;0.8;;;;;;;;;;;;;
2021/05/28 20:11:46;;;;;;;1.3;1.2;;;;;;;;;;;;;
2021/05/28 20:16:31;;;;;;;0.8;0.7;;;;;;;;;;;;;
2021/05/28 20:18:56;;;;;;;0.8;0.8;;;;;;;;;;;;;
2021/05/28 20:21:21;;;;;;;0.4;0.4;;;;;;;;;;;;;
2021/05/28 20:23:47;;;;;;;1;0.9;;;;;;;;;;;;;
2021/05/28 20:26:11;;;;;;;1.1;0.8;;;;;;;;;;;;;
2021/05/28 20:28:36;;;;;;;1.1;0.6;;;;;;;;;;;;;
2021/05/28 20:31:02;;;;;;;0.9;0.6;;;;;;;;;;;;;
2021/05/28 20:33:27;;;;;;;1;0.8;;;;;;;;;;;;;
2021/05/28 20:35:55;;;;;;;2.7;1.1;;;;;;;;;;;;;
2021/05/28 20:38:16;;;;;;;0.7;0.6;;;;;;;;;;;;;